Time;durP1;ratioP1;P1;durP2;ratioP2;P2;SDS_P1;SDS_P2;PMS_P1;PMS_P2;Temp;Humidity;BMP_temperature;BMP_pressure;BME280_temperature;BME280_humidity;BME280_pressure;Samples;Min_cycle;Max_cycle;Signal;HPM_P1;HPM_P2
2024/03/29 00:01:11;;;;;;;0.93;0.20;;;9.20;99.90;;;;;;4989131;28;20885;-67
2024/03/29 00:03:37;;;;;;;0.68;0.35;;;9.20;99.90;;;;;;4986603;28;20038;-71
2024/03/29 00:06:03;;;;;;;2.55;0.50;;;9.20;99.90;;;;;;4985190;28;20033;-71
2024/03/29 00:08:38;;;;;;;0.75;0.40;;;9.10;99.90;;;;;;4985870;28;20030;-72
2024/03/29 00:11:04;;;;;;;1.02;0.28;;;9.00;99.90;;;;;;4983897;28;20035;-71
2024/03/29 00:13:30;;;;;;;0.35;0.20;;;9.10;99.90;;;;;;4985439;28;21687;-71
2024/03/29 00:15:56;;;;;;;2.95;0.40;;;9.10;99.90;;;;;;4987170;28;20030;-71
2024/03/29 00:18:22;;;;;;;0.80;0.38;;;9.10;99.90;;;;;;4984834;28;20045;-71
2024/03/29 00:20:48;;;;;;;1.05;0.50;;;9.10;99.90;;;;;;4987747;28;20057;-71
2024/03/29 00:23:13;;;;;;;1.08;0.40;;;9.10;99.90;;;;;;4985513;28;20037;-71
2024/03/29 00:25:39;;;;;;;2.58;0.43;;;9.00;99.90;;;;;;4987060;28;20033;-71
2024/03/29 00:28:05;;;;;;;0.38;0.25;;;8.90;99.90;;;;;;4989067;28;20046;-71
2024/03/29 00:30:31;;;;;;;0.60;0.40;;;9.00;99.90;;;;;;4984637;28;20040;-71
2024/03/29 00:32:57;;;;;;;4.88;0.52;;;9.00;99.90;;;;;;4986313;28;20042;-71
2024/03/29 00:35:23;;;;;;;2.63;0.32;;;9.10;99.90;;;;;;4984728;28;20058;-72
2024/03/29 00:37:49;;;;;;;1.80;0.50;;;9.10;99.90;;;;;;4985612;28;20037;-71
2024/03/29 00:40:16;;;;;;;0.85;0.30;;;9.10;99.90;;;;;;4986413;28;20033;-71
2024/03/29 00:42:42;;;;;;;2.28;0.40;;;9.20;99.90;;;;;;4986754;28;20060;-72
2024/03/29 00:45:08;;;;;;;2.25;0.40;;;9.20;99.90;;;;;;4986383;28;20534;-72
2024/03/29 00:47:33;;;;;;;1.23;0.52;;;9.30;99.90;;;;;;4984629;28;20042;-72
2024/03/29 00:49:59;;;;;;;1.67;0.47;;;9.30;99.90;;;;;;4986368;28;20061;-72
2024/03/29 00:52:25;;;;;;;0.93;0.30;;;9.20;99.90;;;;;;4986964;28;20030;-72
2024/03/29 00:54:51;;;;;;;0.85;0.40;;;9.20;99.90;;;;;;4987370;28;20066;-72
2024/03/29 00:57:17;;;;;;;2.60;0.50;;;9.10;99.90;;;;;;4985790;28;20026;-72
2024/03/29 00:59:44;;;;;;;4.75;0.60;;;9.10;99.90;;;;;;4987510;28;20107;-72
2024/03/29 01:02:10;;;;;;;0.50;0.50;;;9.10;99.90;;;;;;4988668;28;20038;-72
2024/03/29 01:04:36;;;;;;;1.02;0.57;;;8.90;99.90;;;;;;4987129;28;20117;-72
2024/03/29 01:07:02;;;;;;;1.92;0.57;;;8.80;99.90;;;;;;4987234;28;20030;-72
2024/03/29 01:09:27;;;;;;;0.60;0.60;;;8.80;99.90;;;;;;4987598;28;20064;-72
2024/03/29 01:11:53;;;;;;;2.97;0.50;;;8.80;99.90;;;;;;4987704;28;20046;-72
2024/03/29 01:14:19;;;;;;;3.30;0.50;;;8.80;99.90;;;;;;4986825;28;20036;-72
2024/03/29 01:16:45;;;;;;;2.28;0.47;;;8.80;99.90;;;;;;4988220;28;20159;-72
2024/03/29 01:19:11;;;;;;;4.75;1.50;;;8.80;99.90;;;;;;4988028;28;20096;-72
2024/03/29 01:21:37;;;;;;;1.42;0.70;;;8.70;99.90;;;;;;4986613;28;20054;-71
2024/03/29 01:24:04;;;;;;;1.17;0.93;;;8.60;99.90;;;;;;4987069;28;20050;-72
2024/03/29 01:26:30;;;;;;;0.77;0.63;;;8.60;99.90;;;;;;4987882;28;20037;-72
2024/03/29 01:28:56;;;;;;;0.63;0.63;;;8.60;99.90;;;;;;4987980;28;20038;-72
2024/03/29 01:31:22;;;;;;;2.00;0.77;;;8.60;99.90;;;;;;4984724;28;20040;-72
2024/03/29 01:33:49;;;;;;;2.20;0.90;;;8.60;99.90;;;;;;4987624;28;20120;-72
2024/03/29 01:36:15;;;;;;;1.67;0.80;;;8.60;99.90;;;;;;4987081;28;20370;-72
2024/03/29 01:38:42;;;;;;;2.47;0.80;;;8.50;99.90;;;;;;4988072;28;20040;-71
2024/03/29 01:41:07;;;;;;;1.33;0.80;;;8.40;99.90;;;;;;4986418;28;20033;-71
2024/03/29 01:43:33;;;;;;;0.77;0.70;;;8.30;99.90;;;;;;4987045;28;20042;-71
2024/03/29 01:45:59;;;;;;;3.90;0.90;;;8.40;99.90;;;;;;4987501;28;20033;-72
2024/03/29 01:48:26;;;;;;;1.05;0.85;;;8.40;99.90;;;;;;4988340;28;20050;-72
2024/03/29 01:50:57;;;;;;;1.05;0.88;;;8.20;99.90;;;;;;4989367;28;20042;-72
2024/03/29 01:53:24;;;;;;;2.35;0.85;;;8.00;99.90;;;;;;4989508;28;20085;-72
2024/03/29 01:55:50;;;;;;;5.05;1.35;;;7.90;99.90;;;;;;4989148;28;20038;-72
2024/03/29 01:58:18;;;;;;;1.90;0.80;;;8.00;99.90;;;;;;4990222;28;20056;-72
2024/03/29 02:00:54;;;;;;;0.85;0.70;;;8.10;99.90;;;;;;4989407;28;20022;-72
2024/03/29 02:03:21;;;;;;;1.52;0.80;;;8.10;99.90;;;;;;4987050;28;20045;-72
2024/03/29 02:05:48;;;;;;;1.63;0.70;;;7.90;99.90;;;;;;4988504;28;20034;-72
2024/03/29 02:08:15;;;;;;;1.98;1.10;;;7.90;99.90;;;;;;4988856;28;20759;-71
2024/03/29 02:10:41;;;;;;;3.25;0.70;;;8.00;99.90;;;;;;4990011;28;20557;-71
2024/03/29 02:13:07;;;;;;;2.35;0.90;;;7.80;99.90;;;;;;4985708;28;20026;-72
2024/03/29 02:15:33;;;;;;;3.15;0.68;;;7.70;99.90;;;;;;4987303;28;20057;-72
2024/03/29 02:17:59;;;;;;;1.13;0.90;;;7.70;99.90;;;;;;4989710;28;20083;-72
2024/03/29 02:20:25;;;;;;;2.20;0.80;;;7.80;99.90;;;;;;4990149;28;20034;-71
2024/03/29 02:22:55;;;;;;;4.28;0.80;;;7.90;99.90;;;;;;4988549;28;20034;-72
2024/03/29 02:25:21;;;;;;;1.00;0.80;;;7.90;99.90;;;;;;4989022;28;20153;-72
2024/03/29 02:27:51;;;;;;;2.65;0.95;;;7.80;99.90;;;;;;4988521;28;20042;-72
2024/03/29 02:30:17;;;;;;;2.55;0.90;;;7.90;99.90;;;;;;4987876;28;20113;-71
2024/03/29 02:32:43;;;;;;;1.00;0.60;;;7.90;99.90;;;;;;4990154;28;20036;-72
2024/03/29 02:35:09;;;;;;;5.70;1.05;;;7.80;99.90;;;;;;4989543;28;20814;-72
2024/03/29 02:37:38;;;;;;;1.60;0.70;;;7.90;99.90;;;;;;4989457;28;20100;-72
2024/03/29 02:40:05;;;;;;;1.83;0.73;;;8.00;99.90;;;;;;4988866;28;20088;-72
2024/03/29 02:42:32;;;;;;;1.55;0.55;;;8.10;99.90;;;;;;4989480;28;20053;-72
2024/03/29 02:44:58;;;;;;;3.38;0.80;;;8.00;99.90;;;;;;4989005;28;20093;-72
2024/03/29 02:47:24;;;;;;;3.30;0.90;;;8.00;99.90;;;;;;4987923;28;20034;-72
2024/03/29 02:49:50;;;;;;;1.95;0.80;;;7.90;99.90;;;;;;4989334;28;20034;-72
2024/03/29 02:52:15;;;;;;;0.55;0.50;;;7.90;99.90;;;;;;4949644;28;1161736;-72
2024/03/29 02:54:41;;;;;;;3.28;0.90;;;7.90;99.90;;;;;;4990589;28;20510;-72
2024/03/29 02:57:07;;;;;;;3.60;0.77;;;8.00;99.90;;;;;;4989398;28;20071;-72
2024/03/29 02:59:33;;;;;;;1.23;0.65;;;8.00;99.90;;;;;;4989478;28;20030;-72
2024/03/29 03:01:59;;;;;;;1.10;0.73;;;8.00;99.90;;;;;;4988164;28;20129;-72
2024/03/29 03:04:25;;;;;;;4.20;1.20;;;8.10;99.90;;;;;;4988558;28;20438;-72
2024/03/29 03:06:50;;;;;;;4.72;1.10;;;8.00;99.90;;;;;;4989986;28;20457;-72
2024/03/29 03:12:01;;;;;;;1.10;1.00;;;7.90;99.90;;;;;;4989959;28;20156;-72
2024/03/29 03:14:26;;;;;;;2.90;1.00;;;7.90;99.90;;;;;;4988944;28;20040;-72
2024/03/29 03:16:53;;;;;;;2.70;0.90;;;7.80;99.90;;;;;;4989327;28;20034;-72
2024/03/29 03:19:19;;;;;;;1.02;0.93;;;7.70;99.90;;;;;;4990064;28;20030;-72
2024/03/29 03:21:44;;;;;;;0.98;0.80;;;7.70;99.90;;;;;;4988292;28;20042;-71
2024/03/29 03:24:11;;;;;;;1.05;0.95;;;7.70;99.90;;;;;;4988385;28;20045;-72
2024/03/29 03:26:38;;;;;;;1.27;0.85;;;7.70;99.90;;;;;;4988620;28;20528;-72
2024/03/29 03:29:04;;;;;;;1.48;0.75;;;7.70;99.90;;;;;;4989669;28;20045;-71
2024/03/29 03:31:30;;;;;;;2.42;1.00;;;7.70;99.90;;;;;;4988843;28;20030;-72
2024/03/29 03:33:55;;;;;;;3.72;0.90;;;7.70;99.90;;;;;;4989924;28;20041;-72
2024/03/29 03:36:21;;;;;;;2.88;1.17;;;7.60;99.90;;;;;;4986994;28;20062;-72
2024/03/29 03:38:47;;;;;;;2.70;1.13;;;7.50;99.90;;;;;;4985712;28;20058;-72
2024/03/29 03:41:13;;;;;;;2.92;1.02;;;7.60;99.90;;;;;;4988530;28;20505;-72
2024/03/29 03:43:38;;;;;;;2.58;1.20;;;7.60;99.90;;;;;;4988341;28;20030;-72
2024/03/29 03:46:04;;;;;;;1.60;1.10;;;7.70;99.90;;;;;;4988711;28;20060;-73
2024/03/29 03:48:30;;;;;;;1.58;1.20;;;7.70;99.90;;;;;;4987971;28;21064;-72
2024/03/29 03:50:56;;;;;;;4.97;1.30;;;7.70;99.90;;;;;;4989097;28;20413;-72
2024/03/29 03:53:22;;;;;;;2.85;1.00;;;7.70;99.90;;;;;;4970731;28;20069;-72
2024/03/29 03:55:48;;;;;;;4.50;1.27;;;7.70;99.90;;;;;;4987874;28;20030;-72
2024/03/29 03:58:14;;;;;;;4.25;1.20;;;7.60;99.90;;;;;;4989537;28;20029;-72
2024/03/29 04:00:40;;;;;;;3.42;0.82;;;7.50;99.90;;;;;;4988923;28;20034;-72
2024/03/29 04:03:06;;;;;;;3.45;1.00;;;7.60;99.90;;;;;;4988086;28;20038;-72
2024/03/29 04:05:32;;;;;;;2.33;0.75;;;7.70;99.90;;;;;;4988694;28;20478;-72
2024/03/29 04:07:58;;;;;;;2.35;1.00;;;7.80;99.90;;;;;;4989176;28;20091;-72
2024/03/29 04:10:24;;;;;;;2.28;0.80;;;7.80;99.90;;;;;;4985826;28;20490;-76
2024/03/29 04:12:53;;;;;;;3.05;0.90;;;7.90;99.90;;;;;;4987350;28;20088;-76
2024/03/29 04:15:18;;;;;;;1.85;1.10;;;7.90;99.90;;;;;;4983414;28;20100;-77
2024/03/29 04:17:44;;;;;;;3.47;1.08;;;7.90;99.90;;;;;;4987471;28;20034;-76
2024/03/29 04:20:10;;;;;;;1.55;0.90;;;7.90;99.90;;;;;;4987749;28;20793;-76
2024/03/29 04:22:36;;;;;;;1.85;1.02;;;7.80;99.90;;;;;;4988311;28;20771;-76
2024/03/29 04:25:02;;;;;;;2.88;0.65;;;7.80;99.90;;;;;;4988076;28;20038;-76
2024/03/29 04:27:28;;;;;;;7.20;1.27;;;7.80;99.90;;;;;;4987816;28;20393;-76
2024/03/29 04:29:54;;;;;;;1.15;0.70;;;7.80;99.90;;;;;;4987825;28;20045;-76
2024/03/29 04:32:20;;;;;;;1.85;0.68;;;7.70;99.90;;;;;;4988091;28;20033;-76
2024/03/29 04:34:47;;;;;;;3.63;0.98;;;7.60;99.90;;;;;;4988518;28;20034;-76
2024/03/29 04:37:13;;;;;;;2.08;0.63;;;7.60;99.90;;;;;;4987018;28;20156;-75
2024/03/29 04:39:39;;;;;;;1.05;0.60;;;7.70;99.90;;;;;;4988248;28;20508;-76
2024/03/29 04:42:06;;;;;;;1.00;0.50;;;7.70;99.90;;;;;;4988130;28;20172;-76
2024/03/29 04:44:32;;;;;;;1.25;0.77;;;7.70;99.90;;;;;;4988185;28;20109;-76
2024/03/29 04:46:58;;;;;;;2.80;0.75;;;7.80;99.90;;;;;;4988072;28;20133;-77
2024/03/29 04:49:39;;;;;;;0.90;0.65;;;7.80;99.90;;;;;;4987612;28;20061;-76
2024/03/29 04:52:06;;;;;;;2.17;0.80;;;7.80;99.90;;;;;;4987525;28;20034;-76
2024/03/29 04:54:33;;;;;;;2.47;0.80;;;7.90;99.90;;;;;;4988167;28;20034;-76
2024/03/29 04:57:03;;;;;;;4.63;0.88;;;7.90;99.90;;;;;;4988051;28;20029;-76
2024/03/29 04:59:29;;;;;;;2.55;0.85;;;7.90;99.90;;;;;;4987813;28;20021;-76
2024/03/29 05:01:56;;;;;;;2.53;0.98;;;7.90;99.90;;;;;;4987524;28;20034;-76
2024/03/29 05:04:26;;;;;;;2.00;0.80;;;7.90;99.90;;;;;;4988245;28;20038;-76
2024/03/29 05:06:56;;;;;;;4.63;1.02;;;7.80;99.90;;;;;;4986639;28;20398;-76
2024/03/29 05:09:22;;;;;;;3.20;0.75;;;7.80;99.90;;;;;;4985792;28;20077;-76
2024/03/29 05:11:48;;;;;;;3.83;0.90;;;7.80;99.90;;;;;;4986215;28;20065;-76
2024/03/29 05:14:17;;;;;;;0.82;0.50;;;7.90;99.90;;;;;;4987295;28;20066;-76
2024/03/29 05:16:44;;;;;;;1.85;0.70;;;7.90;99.90;;;;;;4987575;28;20037;-76
2024/03/29 05:19:09;;;;;;;1.90;0.68;;;8.00;99.90;;;;;;4986462;28;20041;-76
2024/03/29 05:21:35;;;;;;;1.85;1.17;;;8.00;99.90;;;;;;4987081;28;20038;-76
2024/03/29 05:24:01;;;;;;;3.28;0.95;;;7.90;99.90;;;;;;4987523;28;20068;-76
2024/03/29 05:26:27;;;;;;;1.42;0.52;;;8.00;99.90;;;;;;4987636;28;20061;-76
2024/03/29 05:28:56;;;;;;;1.10;0.90;;;8.00;99.90;;;;;;4986461;28;20030;-76
2024/03/29 05:31:21;;;;;;;2.30;0.50;;;8.00;99.90;;;;;;4986056;28;20034;-76
2024/03/29 05:33:47;;;;;;;2.05;0.70;;;8.00;99.90;;;;;;4986763;28;20508;-76
2024/03/29 05:36:13;;;;;;;2.67;0.77;;;8.00;99.90;;;;;;4984925;28;20472;-75
2024/03/29 05:38:39;;;;;;;2.45;0.70;;;8.00;99.90;;;;;;4987250;28;20026;-75
2024/03/29 05:41:05;;;;;;;5.05;0.70;;;8.10;99.90;;;;;;4986529;28;20090;-75
2024/03/29 05:43:31;;;;;;;1.83;0.60;;;8.10;99.90;;;;;;4987776;28;20918;-72
2024/03/29 05:45:57;;;;;;;1.75;0.52;;;8.20;99.90;;;;;;4985761;28;20046;-73
2024/03/29 05:48:23;;;;;;;1.83;0.50;;;8.10;99.90;;;;;;4985640;28;20034;-72
2024/03/29 05:50:49;;;;;;;3.85;0.50;;;8.20;99.90;;;;;;4987358;28;20041;-77
2024/03/29 05:53:15;;;;;;;0.65;0.57;;;8.30;99.90;;;;;;4986036;28;20045;-73
2024/03/29 05:55:41;;;;;;;2.03;0.70;;;8.50;99.90;;;;;;4987223;28;20030;-74
2024/03/29 05:58:06;;;;;;;2.63;0.60;;;8.60;99.90;;;;;;4985925;28;20058;-73
2024/03/29 06:00:36;;;;;;;3.95;0.63;;;8.60;99.90;;;;;;4985814;28;20031;-73
2024/03/29 06:03:04;;;;;;;2.55;0.60;;;8.50;99.90;;;;;;4986413;28;20057;-72
2024/03/29 06:05:30;;;;;;;1.45;0.40;;;8.60;99.90;;;;;;4986780;28;20038;-72
2024/03/29 06:07:57;;;;;;;1.00;0.50;;;8.60;99.90;;;;;;4986323;28;20651;-79
2024/03/29 06:10:23;;;;;;;0.60;0.32;;;8.60;99.90;;;;;;4985721;28;20042;-73
2024/03/29 06:12:48;;;;;;;0.82;0.50;;;8.60;99.90;;;;;;4985618;28;20030;-72
2024/03/29 06:17:58;;;;;;;1.25;0.75;;;8.80;99.90;;;;;;4985813;28;20140;-72
2024/03/29 06:20:24;;;;;;;1.35;0.40;;;8.80;99.90;;;;;;4982900;28;20035;-72
2024/03/29 06:22:50;;;;;;;0.77;0.60;;;8.90;99.90;;;;;;4984635;28;20042;-72
2024/03/29 06:25:17;;;;;;;0.93;0.63;;;8.90;99.90;;;;;;4984043;28;20101;-72
2024/03/29 06:27:49;;;;;;;2.83;0.50;;;9.00;99.90;;;;;;4982014;28;20027;-68
2024/03/29 06:30:16;;;;;;;2.10;0.63;;;8.90;99.90;;;;;;4983899;28;20442;-71
2024/03/29 06:32:42;;;;;;;3.35;0.80;;;9.00;99.90;;;;;;4983559;28;20712;-72
2024/03/29 06:35:08;;;;;;;2.67;0.65;;;9.00;99.90;;;;;;4986476;28;20379;-72
2024/03/29 06:37:34;;;;;;;1.10;0.50;;;9.00;99.90;;;;;;4988216;28;20037;-72
2024/03/29 06:40:00;;;;;;;1.50;0.50;;;9.10;99.90;;;;;;4989310;28;20027;-72
2024/03/29 06:42:26;;;;;;;2.92;0.65;;;9.20;99.90;;;;;;4987408;28;20113;-72
2024/03/29 06:44:54;;;;;;;3.08;0.50;;;9.30;99.90;;;;;;4986241;28;20084;-72
2024/03/29 06:47:24;;;;;;;1.20;0.50;;;9.40;99.90;;;;;;4987062;28;20038;-73
2024/03/29 06:49:50;;;;;;;1.23;0.45;;;9.40;99.90;;;;;;4987054;28;20624;-72
2024/03/29 06:52:16;;;;;;;1.60;0.70;;;9.50;99.90;;;;;;4984229;28;20053;-72
2024/03/29 06:54:41;;;;;;;1.75;0.63;;;9.40;99.90;;;;;;4987158;28;20478;-73
2024/03/29 06:57:09;;;;;;;7.32;0.77;;;9.40;99.90;;;;;;4985315;28;20036;-72
2024/03/29 06:59:34;;;;;;;4.32;0.50;;;9.50;99.90;;;;;;4987061;28;20039;-72
2024/03/29 07:02:00;;;;;;;1.23;0.50;;;9.60;99.90;;;;;;4987553;28;20034;-72
2024/03/29 07:04:27;;;;;;;1.08;0.63;;;9.70;99.90;;;;;;4986972;28;20029;-72
2024/03/29 07:06:53;;;;;;;1.30;0.70;;;9.70;99.90;;;;;;4987964;28;20565;-72
2024/03/29 07:09:20;;;;;;;1.40;0.55;;;9.60;99.90;;;;;;4986433;28;20637;-73
2024/03/29 07:11:47;;;;;;;3.90;0.88;;;9.50;99.90;;;;;;4985402;28;21476;-73
2024/03/29 07:14:17;;;;;;;1.70;0.50;;;9.60;99.90;;;;;;4981483;28;20027;-72
2024/03/29 07:16:43;;;;;;;0.77;0.30;;;9.60;99.90;;;;;;4985012;28;20494;-72
2024/03/29 07:19:12;;;;;;;0.60;0.40;;;9.60;99.90;;;;;;4986820;28;20025;-73
2024/03/29 07:21:39;;;;;;;1.33;0.55;;;9.60;99.90;;;;;;4985833;28;20058;-72
2024/03/29 07:24:06;;;;;;;1.45;0.52;;;9.70;99.90;;;;;;4986810;28;20034;-69
2024/03/29 07:26:32;;;;;;;3.17;0.70;;;9.70;99.90;;;;;;4987909;28;20445;-68
2024/03/29 07:28:57;;;;;;;2.13;0.50;;;9.80;99.90;;;;;;4986585;28;20519;-72
2024/03/29 07:31:23;;;;;;;3.47;0.88;;;9.90;99.90;;;;;;4988484;28;20038;-72
2024/03/29 07:33:49;;;;;;;1.40;0.65;;;9.90;99.90;;;;;;4984930;28;20534;-73
2024/03/29 07:36:16;;;;;;;3.10;0.50;;;9.90;99.90;;;;;;4987373;28;20042;-72
2024/03/29 07:38:43;;;;;;;1.35;0.40;;;9.90;99.90;;;;;;4987991;28;20030;-74
2024/03/29 07:41:10;;;;;;;0.70;0.60;;;9.80;99.90;;;;;;4987186;28;20050;-72
2024/03/29 07:43:59;;;;;;;2.88;0.65;;;9.90;99.90;;;;;;4985813;28;20052;-71
2024/03/29 07:46:27;;;;;;;1.25;0.60;;;10.00;99.90;;;;;;4985856;28;20030;-72
2024/03/29 07:48:53;;;;;;;1.98;0.45;;;10.20;99.90;;;;;;4986932;28;20030;-72
2024/03/29 07:51:19;;;;;;;0.65;0.45;;;10.40;99.90;;;;;;4986261;28;20038;-68
2024/03/29 07:53:44;;;;;;;1.75;0.68;;;10.50;99.90;;;;;;4986656;28;20125;-69
2024/03/29 07:56:10;;;;;;;1.15;0.40;;;10.60;99.90;;;;;;4986027;28;20494;-72
2024/03/29 07:58:36;;;;;;;1.90;0.88;;;10.70;99.90;;;;;;4983672;28;20039;-73
2024/03/29 08:01:02;;;;;;;2.20;0.50;;;10.80;99.90;;;;;;4987356;28;20038;-68
2024/03/29 08:03:27;;;;;;;0.60;0.40;;;10.80;99.90;;;;;;4986725;28;20026;-68
2024/03/29 08:06:06;;;;;;;1.70;0.90;;;11.00;99.90;;;;;;4986279;28;20430;-68
2024/03/29 08:08:32;;;;;;;0.73;0.30;;;11.00;99.90;;;;;;4985868;28;20042;-68
2024/03/29 08:10:59;;;;;;;1.23;0.47;;;11.10;99.90;;;;;;4987012;28;20683;-68
2024/03/29 08:13:26;;;;;;;1.65;1.42;;;11.10;99.90;;;;;;4987497;28;20135;-73
2024/03/29 08:16:02;;;;;;;0.82;0.50;;;11.30;99.90;;;;;;4985337;28;20042;-70
2024/03/29 08:18:28;;;;;;;1.58;0.70;;;11.40;99.90;;;;;;4985103;28;20038;-70
2024/03/29 08:20:55;;;;;;;1.63;1.00;;;11.50;99.90;;;;;;4987075;28;20084;-63
2024/03/29 08:23:24;;;;;;;2.53;0.95;;;11.70;99.90;;;;;;4984376;28;20038;-71
2024/03/29 08:25:51;;;;;;;1.20;0.43;;;11.90;99.90;;;;;;4982412;28;20034;-72
2024/03/29 08:28:18;;;;;;;2.72;0.45;;;12.10;99.90;;;;;;4985671;28;20026;-73
2024/03/29 08:30:44;;;;;;;0.95;0.45;;;12.30;99.60;;;;;;4986294;28;20038;-73
2024/03/29 08:33:10;;;;;;;2.25;0.93;;;12.50;98.90;;;;;;4986056;28;20039;-72
2024/03/29 08:35:37;;;;;;;2.38;0.50;;;12.60;98.40;;;;;;4984944;28;20041;-76
2024/03/29 08:38:03;;;;;;;3.75;0.70;;;12.70;97.90;;;;;;4988122;28;20039;-70
2024/03/29 08:40:31;;;;;;;1.95;0.55;;;12.80;97.80;;;;;;4985153;28;20042;-70
2024/03/29 08:42:57;;;;;;;1.05;0.40;;;12.90;97.40;;;;;;5005771;28;20405;-77
2024/03/29 08:45:23;;;;;;;1.25;0.57;;;13.00;97.30;;;;;;5004003;28;20036;-77
2024/03/29 08:47:49;;;;;;;4.43;0.52;;;13.00;97.20;;;;;;5007147;28;20036;-67
2024/03/29 08:50:15;;;;;;;0.98;0.50;;;13.10;97.10;;;;;;5004737;28;20094;-68
2024/03/29 08:52:41;;;;;;;1.05;0.55;;;13.10;97.10;;;;;;5005788;28;20049;-70
2024/03/29 08:55:07;;;;;;;1.17;0.60;;;13.20;96.70;;;;;;5005546;28;20030;-73
2024/03/29 08:57:33;;;;;;;3.25;0.60;;;13.30;96.30;;;;;;5003859;28;20033;-74
2024/03/29 08:59:59;;;;;;;0.40;0.35;;;13.30;95.70;;;;;;5003967;28;21200;-74
2024/03/29 09:02:25;;;;;;;1.23;0.50;;;13.40;95.20;;;;;;5005466;28;20819;-73
2024/03/29 09:04:50;;;;;;;0.90;0.50;;;13.30;95.20;;;;;;5006480;28;20038;-73
2024/03/29 09:07:16;;;;;;;3.72;0.43;;;13.30;95.50;;;;;;5004814;28;20109;-73
2024/03/29 09:09:42;;;;;;;1.25;0.50;;;13.30;95.90;;;;;;5003550;28;20198;-75
2024/03/29 09:12:09;;;;;;;2.13;0.47;;;13.30;95.60;;;;;;5002235;28;20060;-75
2024/03/29 09:14:34;;;;;;;0.75;0.50;;;13.30;95.70;;;;;;5002015;28;20065;-74
2024/03/29 09:17:02;;;;;;;2.47;0.30;;;13.30;95.10;;;;;;5005364;28;20049;-73
2024/03/29 09:19:30;;;;;;;4.18;0.50;;;13.10;95.90;;;;;;5004645;28;20108;-73
2024/03/29 09:21:55;;;;;;;2.67;0.55;;;13.20;95.80;;;;;;5005170;28;20038;-72
2024/03/29 09:24:22;;;;;;;0.90;0.47;;;13.20;95.10;;;;;;5003084;28;20505;-72
2024/03/29 09:26:51;;;;;;;0.50;0.15;;;13.10;95.80;;;;;;5003859;28;20371;-70
2024/03/29 09:29:20;;;;;;;3.35;0.50;;;13.10;95.50;;;;;;5004414;28;20030;-70
2024/03/29 09:31:46;;;;;;;0.88;0.50;;;12.90;95.40;;;;;;5004390;28;20033;-72
2024/03/29 09:34:12;;;;;;;2.25;1.25;;;13.00;95.30;;;;;;5003886;28;20528;-71
2024/03/29 09:36:37;;;;;;;1.02;0.40;;;13.00;95.50;;;;;;5002430;28;20034;-71
2024/03/29 09:39:08;;;;;;;1.65;0.40;;;13.10;96.70;;;;;;5004831;28;20389;-78
2024/03/29 09:41:37;;;;;;;0.70;0.52;;;12.90;96.70;;;;;;5004919;28;20033;-72
2024/03/29 09:44:05;;;;;;;2.00;0.60;;;13.00;96.80;;;;;;5003824;28;20037;-72
2024/03/29 09:46:33;;;;;;;2.67;0.73;;;12.90;96.90;;;;;;5004767;28;20054;-72
2024/03/29 09:49:02;;;;;;;1.88;0.40;;;12.80;96.00;;;;;;5003602;28;20594;-75
2024/03/29 09:51:28;;;;;;;1.15;0.65;;;12.70;96.70;;;;;;5003890;28;20080;-72
2024/03/29 09:53:57;;;;;;;1.75;0.50;;;12.60;96.80;;;;;;5003625;28;20065;-73
2024/03/29 09:56:24;;;;;;;1.85;0.50;;;12.50;96.80;;;;;;5003575;28;20117;-72
2024/03/29 09:58:50;;;;;;;1.38;0.40;;;12.40;97.60;;;;;;5003481;28;20048;-75
2024/03/29 10:01:16;;;;;;;2.33;0.50;;;12.30;98.50;;;;;;5004612;28;20030;-74
2024/03/29 10:03:48;;;;;;;1.08;0.52;;;12.30;98.70;;;;;;5004202;28;20092;-76
2024/03/29 10:06:14;;;;;;;2.72;0.43;;;12.20;98.40;;;;;;5002871;28;20382;-74
2024/03/29 10:08:40;;;;;;;1.13;0.40;;;12.00;99.80;;;;;;5005802;28;20789;-75
2024/03/29 10:11:06;;;;;;;1.77;0.60;;;11.90;99.90;;;;;;5006700;28;20160;-74
2024/03/29 10:13:33;;;;;;;1.48;0.50;;;11.90;99.90;;;;;;5008659;28;20053;-74
2024/03/29 10:16:02;;;;;;;0.68;0.40;;;11.90;99.90;;;;;;5007106;28;20910;-71
2024/03/29 10:18:30;;;;;;;1.15;0.43;;;11.80;99.90;;;;;;5007356;28;20030;-75
2024/03/29 10:21:03;;;;;;;1.90;0.93;;;11.80;99.90;;;;;;5007044;28;20497;-73
2024/03/29 10:23:31;;;;;;;0.75;0.35;;;11.80;99.90;;;;;;5006384;28;20045;-71
2024/03/29 10:25:57;;;;;;;1.85;0.50;;;11.90;99.90;;;;;;5007235;28;20037;-75
2024/03/29 10:28:23;;;;;;;1.92;0.70;;;11.80;99.90;;;;;;5006100;28;20030;-74
2024/03/29 10:30:50;;;;;;;0.80;0.40;;;11.80;99.90;;;;;;5006041;28;20069;-75
2024/03/29 10:33:16;;;;;;;1.83;1.00;;;11.90;99.90;;;;;;5007072;28;20032;-75
2024/03/29 10:35:45;;;;;;;3.17;0.80;;;11.90;99.90;;;;;;5006739;28;20030;-74
2024/03/29 10:38:11;;;;;;;3.88;0.60;;;11.80;99.90;;;;;;5006974;28;20509;-73
2024/03/29 10:40:40;;;;;;;1.70;0.70;;;11.80;99.90;;;;;;5006665;28;20044;-71
2024/03/29 10:43:12;;;;;;;2.03;0.88;;;11.70;99.90;;;;;;5006908;28;20033;-69
2024/03/29 10:45:38;;;;;;;0.68;0.40;;;11.70;99.90;;;;;;5007070;28;20468;-73
2024/03/29 10:48:07;;;;;;;3.15;0.60;;;11.70;99.90;;;;;;5008913;28;20834;-72
2024/03/29 10:50:40;;;;;;;4.15;0.75;;;11.70;99.90;;;;;;5008554;28;20690;-71
2024/03/29 10:53:11;;;;;;;1.85;0.82;;;11.80;99.90;;;;;;5009553;28;20033;-71
2024/03/29 10:55:37;;;;;;;3.03;1.23;;;11.80;99.90;;;;;;5007021;28;20030;-73
2024/03/29 10:58:05;;;;;;;2.42;0.38;;;11.80;99.90;;;;;;5007295;28;20032;-70
2024/03/29 11:00:38;;;;;;;2.45;0.80;;;11.70;99.90;;;;;;5007246;28;20030;-69
2024/03/29 11:03:18;;;;;;;3.17;0.80;;;11.70;99.90;;;;;;5006739;28;20032;-71
2024/03/29 11:05:48;;;;;;;1.42;0.55;;;11.70;99.90;;;;;;5008429;28;20033;-70
2024/03/29 11:08:23;;;;;;;0.60;0.60;;;11.60;99.90;;;;;;5006862;28;20112;-75
2024/03/29 11:10:51;;;;;;;0.70;0.50;;;11.60;99.90;;;;;;5007775;28;20036;-73
2024/03/29 11:13:23;;;;;;;1.20;0.60;;;11.70;99.90;;;;;;5006593;28;20026;-75
2024/03/29 11:15:50;;;;;;;1.90;0.52;;;11.70;99.90;;;;;;5008144;28;20204;-74
2024/03/29 11:18:18;;;;;;;3.40;0.80;;;11.60;99.90;;;;;;5007198;28;20021;-71
2024/03/29 11:20:50;;;;;;;4.60;0.65;;;11.70;99.90;;;;;;5006931;28;20093;-72
2024/03/29 11:23:18;;;;;;;2.47;0.73;;;11.80;99.90;;;;;;5005680;28;20455;-71
2024/03/29 11:25:46;;;;;;;2.67;1.05;;;11.80;99.90;;;;;;5005629;28;20037;-78
2024/03/29 11:28:15;;;;;;;1.42;0.50;;;11.90;99.90;;;;;;5006118;28;20033;-72
2024/03/29 11:30:46;;;;;;;2.38;0.60;;;12.00;99.90;;;;;;5008122;28;20033;-78
2024/03/29 11:33:29;;;;;;;0.85;0.70;;;12.10;99.90;;;;;;5003699;28;20084;-74
2024/03/29 11:35:55;;;;;;;2.30;0.65;;;12.00;99.90;;;;;;5007866;28;20385;-77
2024/03/29 11:38:22;;;;;;;2.97;0.85;;;12.10;99.90;;;;;;5005364;28;20030;-73
2024/03/29 11:41:07;;;;;;;1.45;0.55;;;12.20;99.90;;;;;;5009161;28;20128;-77
2024/03/29 11:43:34;;;;;;;0.30;0.30;;;12.20;99.90;;;;;;5006806;28;20026;-76
2024/03/29 11:46:02;;;;;;;1.52;0.85;;;12.20;99.90;;;;;;5007531;28;20034;-74
2024/03/29 11:48:31;;;;;;;1.83;0.50;;;12.20;99.90;;;;;;5007090;28;20532;-74
2024/03/29 11:50:57;;;;;;;2.10;0.70;;;12.30;99.90;;;;;;5004464;28;20056;-71
2024/03/29 11:53:23;;;;;;;1.80;0.52;;;12.20;99.90;;;;;;5006126;28;20030;-72
2024/03/29 11:55:53;;;;;;;1.15;0.70;;;12.20;99.90;;;;;;5003174;28;20030;-72
2024/03/29 11:58:23;;;;;;;1.00;0.40;;;12.30;99.90;;;;;;5004154;28;20022;-76
2024/03/29 12:00:50;;;;;;;3.58;1.05;;;12.30;99.90;;;;;;5005104;28;20033;-71
2024/03/29 12:03:20;;;;;;;1.42;0.50;;;12.20;99.90;;;;;;5004488;28;20861;-68
2024/03/29 12:05:48;;;;;;;3.28;0.80;;;12.20;99.90;;;;;;5002668;28;20037;-71
2024/03/29 12:08:14;;;;;;;3.92;0.75;;;12.20;99.90;;;;;;5002748;28;20034;-71
2024/03/29 12:10:40;;;;;;;1.45;0.40;;;12.30;99.90;;;;;;5004339;28;20029;-71
2024/03/29 12:13:07;;;;;;;0.98;0.50;;;12.20;99.90;;;;;;5005102;28;20143;-66
2024/03/29 12:15:33;;;;;;;2.45;0.82;;;12.20;99.90;;;;;;5007383;28;20109;-66
2024/03/29 12:18:04;;;;;;;1.20;0.50;;;12.10;99.90;;;;;;5005715;28;20122;-65
2024/03/29 12:20:35;;;;;;;0.93;0.63;;;12.20;99.90;;;;;;5003990;28;20977;-65
2024/03/29 12:23:02;;;;;;;0.85;0.60;;;12.20;99.90;;;;;;5004427;28;20059;-67
2024/03/29 12:25:32;;;;;;;1.50;0.60;;;12.40;99.90;;;;;;5003411;28;20030;-66
2024/03/29 12:27:59;;;;;;;1.10;0.50;;;12.40;99.90;;;;;;5003432;28;20049;-68
2024/03/29 12:30:26;;;;;;;2.22;0.82;;;12.60;99.90;;;;;;5003202;28;20517;-68
2024/03/29 12:33:14;;;;;;;0.60;0.40;;;12.80;99.90;;;;;;5003003;28;20103;-68
2024/03/29 12:35:45;;;;;;;1.67;0.73;;;12.90;99.90;;;;;;5002420;28;20033;-68
2024/03/29 12:38:15;;;;;;;2.60;0.73;;;13.20;99.90;;;;;;5005705;28;20040;-67
2024/03/29 12:40:43;;;;;;;2.58;0.50;;;13.50;99.90;;;;;;5004992;28;20441;-68
2024/03/29 12:43:10;;;;;;;1.92;0.60;;;13.60;99.90;;;;;;5004609;28;20129;-68
2024/03/29 12:45:38;;;;;;;2.20;0.80;;;13.80;99.90;;;;;;5004248;28;20421;-68
2024/03/29 12:48:15;;;;;;;1.00;0.50;;;13.90;99.50;;;;;;5004470;28;20616;-68
2024/03/29 12:50:43;;;;;;;1.75;0.70;;;13.90;99.40;;;;;;5004902;28;20038;-68
2024/03/29 12:53:14;;;;;;;1.02;0.60;;;13.90;99.00;;;;;;5003857;28;20123;-67
2024/03/29 12:55:44;;;;;;;1.27;0.43;;;13.90;99.00;;;;;;5002037;28;20136;-68
2024/03/29 12:58:11;;;;;;;2.42;0.70;;;13.90;99.10;;;;;;5003482;28;20552;-68